Time;durP1;ratioP1;P1;durP2;ratioP2;P2;SDS_P1;SDS_P2;PMS_P1;PMS_P2;Temp;Humidity;BMP_temperature;BMP_pressure;BME280_temperature;BME280_humidity;BME280_pressure;Samples;Min_cycle;Max_cycle;Signal;HPM_P1;HPM_P2
2021/03/24 00:01:55;;;;;;;15.57;4.90;;;8.50;99.90;;;;;;4960163;28;20075;-96
2021/03/24 00:04:22;;;;;;;13.25;4.28;;;8.50;99.90;;;;;;4959919;28;20074;-95
2021/03/24 00:06:48;;;;;;;13.38;5.18;;;8.50;99.90;;;;;;4976811;28;20086;-95
2021/03/24 00:09:19;;;;;;;13.63;4.82;;;8.50;99.90;;;;;;4963303;28;20026;-95
2021/03/24 00:11:47;;;;;;;15.85;5.60;;;8.50;99.90;;;;;;4970394;28;20035;-95
2021/03/24 00:14:16;;;;;;;17.52;4.93;;;8.50;99.90;;;;;;4968323;28;20030;-94
2021/03/24 00:16:42;;;;;;;20.00;7.93;;;8.50;99.90;;;;;;4979084;28;20023;-94
2021/03/24 00:19:09;;;;;;;14.15;5.28;;;8.50;99.90;;;;;;4974394;28;20099;-93
2021/03/24 00:21:34;;;;;;;16.08;4.50;;;8.50;99.90;;;;;;4974140;28;20040;-94
2021/03/24 00:24:00;;;;;;;15.20;4.70;;;8.50;99.90;;;;;;4985026;28;20483;-96
2021/03/24 00:26:26;;;;;;;10.68;3.67;;;8.50;99.90;;;;;;4988024;28;20042;-96
2021/03/24 00:28:53;;;;;;;10.20;4.18;;;8.50;99.90;;;;;;4985347;28;20027;-95
2021/03/24 00:31:22;;;;;;;13.13;5.05;;;8.50;99.90;;;;;;4980601;28;20029;-96
2021/03/24 00:33:49;;;;;;;11.50;5.07;;;8.50;99.90;;;;;;4977839;28;20136;-95
2021/03/24 00:36:14;;;;;;;17.77;5.45;;;8.50;99.90;;;;;;4987635;28;20030;-93
2021/03/24 00:38:40;;;;;;;11.18;3.83;;;8.50;99.90;;;;;;4980997;28;20027;-96
2021/03/24 00:41:06;;;;;;;12.40;4.65;;;8.50;99.90;;;;;;4986182;28;20030;-96
2021/03/24 00:43:32;;;;;;;10.45;4.60;;;8.50;99.90;;;;;;4986584;28;20039;-94
2021/03/24 00:46:00;;;;;;;11.60;4.53;;;8.50;99.90;;;;;;4978179;28;20023;-95
2021/03/24 00:48:33;;;;;;;13.13;4.72;;;8.40;99.90;;;;;;4978759;28;20056;-93
2021/03/24 00:51:01;;;;;;;15.25;5.07;;;8.40;99.90;;;;;;4978767;28;20029;-95
2021/03/24 00:53:31;;;;;;;11.90;4.40;;;8.40;99.90;;;;;;4979297;28;20027;-93
2021/03/24 00:55:58;;;;;;;14.30;4.43;;;8.40;99.90;;;;;;4985743;28;20023;-96
2021/03/24 00:58:24;;;;;;;20.75;5.53;;;8.40;99.90;;;;;;4992418;28;20031;-95
2021/03/24 01:00:51;;;;;;;8.52;3.90;;;8.40;99.90;;;;;;4978431;28;20047;-95
2021/03/24 01:03:21;;;;;;;17.88;4.85;;;8.40;99.90;;;;;;4978110;28;20026;-94
2021/03/24 01:05:49;;;;;;;10.27;4.60;;;8.40;99.90;;;;;;4963469;28;20031;-94
2021/03/24 01:08:24;;;;;;;14.48;4.55;;;8.40;99.90;;;;;;4978592;28;20056;-94
2021/03/24 01:10:57;;;;;;;8.63;4.10;;;8.40;99.90;;;;;;4966976;28;20091;-94
2021/03/24 01:13:25;;;;;;;10.35;4.35;;;8.40;99.90;;;;;;4960546;28;20126;-95
2021/03/24 01:15:55;;;;;;;12.85;4.43;;;8.40;99.90;;;;;;4984575;28;20029;-95
2021/03/24 01:18:49;;;;;;;13.90;4.18;;;8.40;99.90;;;;;;4963410;28;20039;-96
2021/03/24 01:21:16;;;;;;;14.85;6.43;;;8.40;99.90;;;;;;4977949;28;20081;-93
2021/03/24 01:23:47;;;;;;;16.40;6.40;;;8.40;99.90;;;;;;4978118;28;20051;-94
2021/03/24 01:26:30;;;;;;;15.50;4.53;;;8.30;99.90;;;;;;4979598;28;20049;-93
2021/03/24 01:29:03;;;;;;;16.88;4.40;;;8.30;99.90;;;;;;4964014;28;20032;-96
2021/03/24 01:31:51;;;;;;;12.10;4.38;;;8.40;99.90;;;;;;4959218;28;20063;-96
2021/03/24 01:34:23;;;;;;;16.42;6.47;;;8.30;99.90;;;;;;4919386;28;20038;-95
2021/03/24 01:36:54;;;;;;;11.85;4.43;;;8.30;99.90;;;;;;4979061;28;20026;-95
2021/03/24 01:39:23;;;;;;;13.70;4.80;;;8.30;99.90;;;;;;4962678;28;20088;-96
2021/03/24 01:41:48;;;;;;;14.32;4.97;;;8.30;99.90;;;;;;4978418;28;20041;-94
2021/03/24 01:44:18;;;;;;;8.23;4.43;;;8.30;99.90;;;;;;4977455;28;20038;-96
2021/03/24 01:46:47;;;;;;;13.25;4.80;;;8.30;99.90;;;;;;4941388;29;20477;-95
2021/03/24 01:49:44;;;;;;;10.13;4.10;;;8.30;99.90;;;;;;4967440;28;20038;-95
2021/03/24 01:52:14;;;;;;;10.00;5.97;;;8.30;99.90;;;;;;4884578;29;20115;-95
2021/03/24 01:54:50;;;;;;;10.52;4.53;;;8.30;99.90;;;;;;4893471;29;20062;-95
2021/03/24 01:57:37;;;;;;;13.73;4.95;;;8.30;99.90;;;;;;4856305;29;20044;-94
2021/03/24 02:00:25;;;;;;;15.95;5.00;;;8.30;99.90;;;;;;4873809;29;20592;-95
2021/03/24 02:03:03;;;;;;;14.60;4.60;;;8.30;99.90;;;;;;4881132;29;20041;-96
2021/03/24 02:05:32;;;;;;;12.90;4.05;;;8.30;99.90;;;;;;4905995;29;20032;-93
2021/03/24 02:08:09;;;;;;;14.85;4.38;;;8.30;99.90;;;;;;4885811;29;20037;-94
2021/03/24 02:11:08;;;;;;;12.35;4.72;;;8.30;99.90;;;;;;4880302;29;20547;-96
2021/03/24 02:13:45;;;;;;;13.48;4.50;;;8.30;99.90;;;;;;4868547;29;20025;-94
2021/03/24 02:16:27;;;;;;;16.67;4.57;;;8.30;99.90;;;;;;4882536;29;20072;-94
2021/03/24 02:18:58;;;;;;;10.93;3.95;;;8.30;99.90;;;;;;4882931;29;20542;-95
2021/03/24 02:21:34;;;;;;;15.45;4.60;;;8.30;99.90;;;;;;4892761;29;20040;-95
2021/03/24 02:24:21;;;;;;;10.32;4.68;;;8.30;99.90;;;;;;4881174;29;20127;-94
2021/03/24 02:27:08;;;;;;;10.23;3.78;;;8.30;99.90;;;;;;4864383;29;20033;-93
2021/03/24 02:29:38;;;;;;;14.32;5.05;;;8.30;99.90;;;;;;4930444;29;20047;-93
2021/03/24 02:32:10;;;;;;;14.02;6.18;;;8.30;99.90;;;;;;4955705;29;20063;-93
2021/03/24 02:34:42;;;;;;;8.60;4.25;;;8.40;99.90;;;;;;4955548;29;20081;-92
2021/03/24 02:37:11;;;;;;;9.35;4.13;;;8.30;99.90;;;;;;4939892;29;20031;-94
2021/03/24 02:39:39;;;;;;;12.98;4.88;;;8.30;99.90;;;;;;4955574;28;20031;-94
2021/03/24 02:42:05;;;;;;;11.57;4.10;;;8.30;99.90;;;;;;4955541;29;20027;-96
2021/03/24 02:44:34;;;;;;;13.55;4.88;;;8.40;99.90;;;;;;4955546;28;20038;-93
2021/03/24 02:47:05;;;;;;;13.35;4.32;;;8.40;99.90;;;;;;4954900;29;20110;-95
2021/03/24 02:49:43;;;;;;;12.93;5.13;;;8.40;99.90;;;;;;4951536;29;20039;-96
2021/03/24 02:52:45;;;;;;;20.15;4.95;;;8.40;99.90;;;;;;4958364;28;20039;-94
2021/03/24 02:55:14;;;;;;;12.77;4.97;;;8.40;99.90;;;;;;4964427;28;20023;-96
2021/03/24 02:58:01;;;;;;;12.95;4.80;;;8.40;99.90;;;;;;4966321;29;20038;-94
2021/03/24 03:00:27;;;;;;;14.82;5.53;;;8.40;99.90;;;;;;4976115;28;20113;-95
2021/03/24 03:03:00;;;;;;;19.30;5.65;;;8.40;99.90;;;;;;4981143;28;20027;-94
2021/03/24 03:05:33;;;;;;;16.05;5.60;;;8.40;99.90;;;;;;4979995;28;20077;-95
2021/03/24 03:08:14;;;;;;;15.43;5.57;;;8.30;99.90;;;;;;4981102;28;20369;-95
2021/03/24 03:10:58;;;;;;;20.48;6.38;;;8.30;99.90;;;;;;4979874;28;20022;-95
2021/03/24 03:13:36;;;;;;;20.65;7.43;;;8.30;99.90;;;;;;4979534;28;20034;-95
2021/03/24 03:16:36;;;;;;;19.23;6.90;;;8.30;99.90;;;;;;4979424;28;20050;-94
2021/03/24 03:19:23;;;;;;;22.77;8.15;;;8.30;99.90;;;;;;4979309;28;20496;-95
2021/03/24 03:22:00;;;;;;;17.27;8.00;;;8.20;99.90;;;;;;4980041;28;20062;-93
2021/03/24 03:24:47;;;;;;;16.58;7.20;;;8.20;99.90;;;;;;4965252;28;20062;-95
2021/03/24 03:27:18;;;;;;;19.70;7.65;;;8.20;99.90;;;;;;4970093;28;20019;-93
2021/03/24 03:29:46;;;;;;;17.33;8.25;;;8.20;99.90;;;;;;4984876;28;20030;-93
2021/03/24 03:32:15;;;;;;;23.98;8.18;;;8.20;99.90;;;;;;5001350;28;20039;-94
2021/03/24 03:34:51;;;;;;;21.30;9.20;;;8.20;99.90;;;;;;4985785;28;20068;-94
2021/03/24 03:37:21;;;;;;;22.10;7.43;;;8.10;99.90;;;;;;4989502;28;20032;-95
2021/03/24 03:39:49;;;;;;;16.13;7.80;;;8.10;99.90;;;;;;4979887;28;20480;-94
2021/03/24 03:42:17;;;;;;;22.25;8.55;;;8.10;99.90;;;;;;4977015;28;20098;-94
2021/03/24 03:44:46;;;;;;;19.92;8.68;;;8.10;99.90;;;;;;4977998;28;20068;-94
2021/03/24 03:47:18;;;;;;;20.08;8.57;;;8.10;99.90;;;;;;4978145;28;20055;-94
2021/03/24 03:49:45;;;;;;;22.10;9.10;;;8.10;99.90;;;;;;4977349;28;20031;-96
2021/03/24 03:52:41;;;;;;;19.85;8.65;;;8.10;99.90;;;;;;4961459;28;20498;-95
2021/03/24 03:55:16;;;;;;;23.13;8.50;;;8.00;99.90;;;;;;4977192;28;20097;-96
2021/03/24 03:57:57;;;;;;;20.55;7.15;;;8.00;99.90;;;;;;4977756;28;20029;-95
2021/03/24 04:00:37;;;;;;;22.00;9.07;;;8.00;99.90;;;;;;4977520;28;20065;-94
2021/03/24 04:03:19;;;;;;;24.13;9.82;;;8.00;99.90;;;;;;4977680;28;20042;-93
2021/03/24 04:05:57;;;;;;;19.58;9.35;;;8.00;99.90;;;;;;4961752;28;20051;-96
2021/03/24 04:08:29;;;;;;;19.75;8.15;;;8.00;99.90;;;;;;4976956;28;20050;-95
2021/03/24 04:10:57;;;;;;;17.67;7.45;;;8.00;99.90;;;;;;4977353;28;20113;-95
2021/03/24 04:13:31;;;;;;;21.77;8.20;;;8.00;99.90;;;;;;4977592;28;20110;-96
2021/03/24 04:15:59;;;;;;;17.08;7.45;;;8.00;99.90;;;;;;4977375;28;20119;-95
2021/03/24 04:18:38;;;;;;;18.98;8.48;;;8.00;99.90;;;;;;4960400;28;20117;-95
2021/03/24 04:21:06;;;;;;;20.77;8.65;;;8.00;99.90;;;;;;4975961;28;20041;-95
2021/03/24 04:23:39;;;;;;;22.73;7.30;;;8.00;99.90;;;;;;4962772;28;20101;-94
2021/03/24 04:26:15;;;;;;;16.85;6.65;;;8.00;99.90;;;;;;4979437;28;20173;-94
2021/03/24 04:28:44;;;;;;;14.88;7.90;;;8.00;99.90;;;;;;4979138;28;20186;-95
2021/03/24 04:31:14;;;;;;;19.95;9.23;;;8.00;99.90;;;;;;4996913;28;20036;-96
2021/03/24 04:33:41;;;;;;;18.85;6.82;;;8.00;99.90;;;;;;4979682;28;20125;-94
2021/03/24 04:36:31;;;;;;;13.68;6.32;;;8.00;99.90;;;;;;4979374;28;20062;-96
2021/03/24 04:39:02;;;;;;;12.93;6.70;;;8.10;99.90;;;;;;4979190;28;20047;-95
2021/03/24 04:41:36;;;;;;;17.92;7.47;;;8.10;99.90;;;;;;4980414;28;20038;-93
2021/03/24 04:44:11;;;;;;;18.67;6.43;;;8.10;99.90;;;;;;4979916;28;20026;-95
2021/03/24 04:46:41;;;;;;;18.98;7.70;;;8.10;99.90;;;;;;4979942;28;20105;-95
2021/03/24 04:49:19;;;;;;;19.58;7.88;;;8.10;99.90;;;;;;4979251;28;20034;-96
2021/03/24 04:51:46;;;;;;;8.90;5.63;;;8.10;99.90;;;;;;4979601;28;20027;-94
2021/03/24 04:54:31;;;;;;;15.68;6.53;;;8.10;99.90;;;;;;4979372;28;20125;-94
2021/03/24 04:57:13;;;;;;;17.42;7.38;;;8.10;99.90;;;;;;4980122;28;20061;-94
2021/03/24 04:59:44;;;;;;;21.98;8.10;;;8.10;99.90;;;;;;4997297;28;20038;-94
2021/03/24 05:02:17;;;;;;;14.38;7.28;;;8.10;99.90;;;;;;4978835;28;20042;-95
2021/03/24 05:04:51;;;;;;;11.13;6.35;;;8.10;99.90;;;;;;4979745;28;20023;-94
2021/03/24 05:07:57;;;;;;;14.10;7.97;;;8.10;99.90;;;;;;4979338;28;20034;-94
2021/03/24 05:10:45;;;;;;;15.68;7.88;;;8.10;99.90;;;;;;4979685;28;20034;-94
2021/03/24 05:13:38;;;;;;;18.50;6.85;;;8.10;99.90;;;;;;4995072;28;20109;-94
2021/03/24 05:16:21;;;;;;;16.92;8.23;;;8.10;99.90;;;;;;4979356;28;20034;-94
2021/03/24 05:18:52;;;;;;;24.15;8.65;;;8.00;99.90;;;;;;4979280;28;20026;-96
2021/03/24 05:21:56;;;;;;;21.90;9.18;;;8.00;99.90;;;;;;4979326;28;20124;-95
2021/03/24 05:24:26;;;;;;;14.15;6.72;;;8.00;99.90;;;;;;4983286;28;20066;-96
2021/03/24 05:27:15;;;;;;;11.48;5.53;;;7.90;99.90;;;;;;4968311;28;20065;-95
2021/03/24 05:29:48;;;;;;;9.55;5.03;;;7.90;99.90;;;;;;4983002;28;20041;-95
2021/03/24 05:32:24;;;;;;;8.10;3.45;;;7.90;99.90;;;;;;4989347;28;20053;-94
2021/03/24 05:34:54;;;;;;;6.80;2.60;;;7.80;99.90;;;;;;5013383;28;20038;-94
2021/03/24 05:37:29;;;;;;;2.47;1.55;;;7.80;99.90;;;;;;5007919;28;20057;-96
2021/03/24 05:40:11;;;;;;;4.07;2.10;;;7.70;99.90;;;;;;4987546;28;20098;-94
2021/03/24 05:42:56;;;;;;;3.75;2.05;;;7.60;99.90;;;;;;4976117;28;20035;-96
2021/03/24 05:45:42;;;;;;;6.35;1.33;;;7.60;99.90;;;;;;4989279;28;20030;-96
2021/03/24 05:48:32;;;;;;;4.65;1.30;;;7.50;99.90;;;;;;4990148;28;20027;-94
2021/03/24 05:51:16;;;;;;;2.53;1.27;;;7.50;99.90;;;;;;4985887;28;20066;-95
2021/03/24 05:54:12;;;;;;;2.03;1.10;;;7.40;99.90;;;;;;4987308;28;20038;-94
2021/03/24 05:57:14;;;;;;;4.90;0.95;;;7.40;99.90;;;;;;4984796;28;20113;-96
2021/03/24 06:00:11;;;;;;;1.83;0.80;;;7.30;99.90;;;;;;4980546;28;20031;-95
2021/03/24 06:02:59;;;;;;;3.30;0.68;;;7.30;99.90;;;;;;4978745;28;20558;-95
2021/03/24 06:05:53;;;;;;;1.92;0.88;;;7.20;99.90;;;;;;4998426;28;20166;-95
2021/03/24 06:08:48;;;;;;;5.95;0.90;;;7.20;99.90;;;;;;4981942;28;20034;-95
2021/03/24 06:11:49;;;;;;;0.50;0.47;;;7.10;99.90;;;;;;4979950;28;20542;-95
2021/03/24 06:14:37;;;;;;;;;;;7.10;99.90;;;;;;4927350;29;20040;-96
2021/03/24 06:17:33;;;;;;;3.20;0.70;;;7.10;99.90;;;;;;4901109;29;19928;-95
2021/03/24 06:20:42;;;;;;;2.13;0.80;;;7.00;99.90;;;;;;4929199;29;20107;-95
2021/03/24 06:23:36;;;;;;;4.60;1.27;;;7.00;99.90;;;;;;4853239;29;20046;-96
2021/03/24 06:26:30;;;;;;;6.75;2.40;;;7.00;99.90;;;;;;4835211;29;20038;-95
2021/03/24 06:29:17;;;;;;;7.63;3.03;;;7.00;99.90;;;;;;4826108;29;20033;-95
2021/03/24 06:32:21;;;;;;;4.35;2.20;;;7.00;99.90;;;;;;4842523;29;20038;-94
2021/03/24 06:35:37;;;;;;;7.10;1.50;;;7.00;99.90;;;;;;4787331;29;20099;-94
2021/03/24 06:38:36;;;;;;;6.90;1.63;;;7.00;99.90;;;;;;4789884;30;20041;-95
2021/03/24 06:41:03;;;;;;;7.10;1.15;;;7.00;99.90;;;;;;4786260;29;20054;-94
2021/03/24 06:44:10;;;;;;;4.70;1.70;;;7.00;99.90;;;;;;4769706;29;20036;-93
2021/03/24 06:46:44;;;;;;;5.13;1.55;;;7.10;99.90;;;;;;4840446;29;20042;-92
2021/03/24 06:49:30;;;;;;;8.05;1.60;;;7.10;99.90;;;;;;4821758;29;20034;-93
2021/03/24 06:52:01;;;;;;;6.18;2.00;;;7.10;99.90;;;;;;4840634;29;20059;-93
2021/03/24 06:55:03;;;;;;;5.38;1.50;;;7.10;99.90;;;;;;4827469;29;20029;-93
2021/03/24 06:57:50;;;;;;;6.25;1.42;;;7.20;99.90;;;;;;4853220;29;20052;-95
2021/03/24 07:00:53;;;;;;;7.75;1.55;;;7.20;99.90;;;;;;4886636;29;20100;-95
2021/03/24 07:03:58;;;;;;;4.03;2.05;;;7.20;99.90;;;;;;4892210;29;20049;-95
2021/03/24 07:06:55;;;;;;;4.97;1.60;;;7.20;99.90;;;;;;4900588;29;20016;-94
2021/03/24 07:09:51;;;;;;;2.92;1.42;;;7.20;99.90;;;;;;4938094;28;20091;-95
2021/03/24 07:12:29;;;;;;;5.60;1.90;;;7.20;99.90;;;;;;4959400;29;20027;-95
2021/03/24 07:15:29;;;;;;;8.27;1.85;;;7.20;99.90;;;;;;4957604;29;20023;-94
2021/03/24 07:18:13;;;;;;;8.55;1.80;;;7.20;99.90;;;;;;4949859;29;20031;-94
2021/03/24 07:21:16;;;;;;;8.10;2.10;;;7.20;99.90;;;;;;4956224;28;20035;-95
2021/03/24 07:24:23;;;;;;;10.75;2.47;;;7.20;99.90;;;;;;4958701;29;20020;-95
2021/03/24 07:27:13;;;;;;;5.10;1.85;;;7.20;99.90;;;;;;4959739;29;20035;-95
2021/03/24 07:30:04;;;;;;;6.53;1.83;;;7.20;99.90;;;;;;4962725;28;20027;-94
2021/03/24 07:32:39;;;;;;;6.47;2.60;;;7.20;99.90;;;;;;4955118;29;20054;-95
2021/03/24 07:35:21;;;;;;;5.93;2.40;;;7.20;99.90;;;;;;4961071;29;20170;-95
2021/03/24 07:38:01;;;;;;;6.85;2.67;;;7.30;99.90;;;;;;4970675;28;20114;-95
2021/03/24 07:40:51;;;;;;;5.50;2.95;;;7.30;99.90;;;;;;4963190;28;20027;-95
2021/03/24 07:43:37;;;;;;;11.43;2.83;;;7.30;99.90;;;;;;4949813;29;20027;-95
2021/03/24 07:46:26;;;;;;;10.48;3.60;;;7.40;99.90;;;;;;4957376;29;20032;-95
2021/03/24 07:49:17;;;;;;;8.40;2.40;;;7.40;99.90;;;;;;4958388;29;20461;-93
2021/03/24 07:51:57;;;;;;;6.93;2.28;;;7.40;99.90;;;;;;4946540;29;20039;-95
2021/03/24 07:55:00;;;;;;;8.88;2.40;;;7.50;99.90;;;;;;4957665;29;20020;-93
2021/03/24 07:57:41;;;;;;;9.30;2.75;;;7.50;99.90;;;;;;4939622;29;20031;-95
2021/03/24 08:00:21;;;;;;;6.20;2.40;;;7.60;99.90;;;;;;4955640;29;20122;-95
2021/03/24 08:03:05;;;;;;;14.60;3.80;;;7.60;99.90;;;;;;4961317;29;20031;-95
2021/03/24 08:05:55;;;;;;;12.30;2.55;;;7.60;99.90;;;;;;4944391;29;20311;-94
2021/03/24 08:08:33;;;;;;;9.57;2.10;;;7.70;99.90;;;;;;4951978;29;20066;-93
2021/03/24 08:11:22;;;;;;;10.07;2.10;;;7.80;99.90;;;;;;4936857;29;20123;-96
2021/03/24 08:14:08;;;;;;;8.63;2.13;;;7.80;99.90;;;;;;4956407;28;20059;-93
2021/03/24 08:16:53;;;;;;;12.35;2.30;;;7.90;99.90;;;;;;4956770;29;20027;-94
2021/03/24 08:19:28;;;;;;;11.05;2.13;;;7.90;99.90;;;;;;4949217;29;20043;-95
2021/03/24 08:22:22;;;;;;;9.50;2.83;;;8.00;99.90;;;;;;4947231;29;20032;-94
2021/03/24 08:25:00;;;;;;;12.60;2.53;;;8.10;99.90;;;;;;4964473;28;20070;-93
2021/03/24 08:27:37;;;;;;;10.30;2.53;;;8.10;99.90;;;;;;4978506;28;20027;-94
2021/03/24 08:30:26;;;;;;;9.02;2.65;;;8.20;99.90;;;;;;4996912;28;20094;-94
2021/03/24 08:33:15;;;;;;;9.25;2.88;;;8.20;99.90;;;;;;4976122;28;20026;-94
2021/03/24 08:35:49;;;;;;;12.60;2.83;;;8.30;99.90;;;;;;4971716;28;20031;-93
2021/03/24 08:38:43;;;;;;;8.30;2.63;;;8.40;99.90;;;;;;4974068;28;20027;-94
2021/03/24 08:41:40;;;;;;;10.45;3.20;;;8.50;99.90;;;;;;4969166;28;20053;-93
2021/03/24 08:44:28;;;;;;;14.05;2.53;;;8.60;99.90;;;;;;4968959;28;20165;-94
2021/03/24 08:47:00;;;;;;;6.78;2.58;;;8.70;99.90;;;;;;4969312;28;20037;-92
2021/03/24 08:49:32;;;;;;;9.68;2.63;;;8.80;99.90;;;;;;4975730;28;20034;-91
2021/03/24 08:52:55;;;;;;;9.60;2.67;;;8.80;99.90;;;;;;4979801;28;20484;-93
2021/03/24 08:55:30;;;;;;;11.02;2.03;;;8.90;99.90;;;;;;4919465;28;20267;-93
2021/03/24 08:58:28;;;;;;;10.45;1.73;;;9.00;99.90;;;;;;4963802;28;20030;-93
2021/03/24 09:01:31;;;;;;;12.55;1.92;;;9.10;99.90;;;;;;4975439;28;20116;-91
2021/03/24 09:04:19;;;;;;;10.82;2.03;;;9.10;99.90;;;;;;4978884;28;20109;-93
2021/03/24 09:07:06;;;;;;;15.80;1.95;;;9.20;99.90;;;;;;4978674;28;20022;-92
2021/03/24 09:10:07;;;;;;;11.38;1.58;;;9.40;99.90;;;;;;4970092;28;20042;-92
2021/03/24 09:12:45;;;;;;;9.00;1.65;;;9.50;99.90;;;;;;4954874;28;20030;-92
2021/03/24 09:15:25;;;;;;;12.73;1.60;;;9.70;99.90;;;;;;4997963;28;20034;-92
2021/03/24 09:18:14;;;;;;;8.85;1.35;;;9.80;99.90;;;;;;4969477;28;20102;-91
2021/03/24 09:21:01;;;;;;;8.60;2.13;;;9.80;99.90;;;;;;4973732;28;20113;-92
2021/03/24 09:24:09;;;;;;;6.60;1.50;;;9.80;99.90;;;;;;4975121;28;20027;-93
2021/03/24 09:26:59;;;;;;;12.45;1.90;;;9.80;99.90;;;;;;4955133;29;20062;-93
2021/03/24 09:29:41;;;;;;;8.52;1.67;;;9.90;99.90;;;;;;4954140;29;20485;-93
2021/03/24 09:32:45;;;;;;;13.25;1.50;;;9.90;99.90;;;;;;4971100;28;20031;-93
2021/03/24 09:35:24;;;;;;;8.68;1.27;;;10.00;99.90;;;;;;4903402;29;20096;-94
2021/03/24 09:38:02;;;;;;;4.78;1.20;;;10.00;99.90;;;;;;4906916;29;20185;-93
2021/03/24 09:40:36;;;;;;;7.18;1.35;;;10.10;99.90;;;;;;4898798;29;20028;-92
2021/03/24 09:43:15;;;;;;;9.50;1.80;;;10.10;99.20;;;;;;4907433;29;20055;-95
2021/03/24 09:45:42;;;;;;;8.73;1.90;;;10.20;98.50;;;;;;4891491;29;20494;-93
2021/03/24 09:48:17;;;;;;;10.60;1.65;;;10.20;97.80;;;;;;4888392;29;20033;-94
2021/03/24 09:50:55;;;;;;;7.30;1.35;;;10.20;97.10;;;;;;4891272;29;20036;-92
2021/03/24 09:53:30;;;;;;;9.38;1.77;;;10.20;95.70;;;;;;4906045;29;20036;-92
2021/03/24 09:55:56;;;;;;;9.40;1.48;;;10.30;95.50;;;;;;4888365;29;20020;-93
2021/03/24 09:58:51;;;;;;;8.23;1.42;;;10.40;94.80;;;;;;4896630;29;20083;-91
2021/03/24 10:01:27;;;;;;;6.40;1.55;;;10.40;94.10;;;;;;4904572;29;20044;-93
2021/03/24 10:04:05;;;;;;;4.47;1.30;;;10.50;94.00;;;;;;4890045;29;20044;-92
2021/03/24 10:07:14;;;;;;;9.52;1.42;;;10.70;93.60;;;;;;4888910;29;20091;-92
2021/03/24 10:09:51;;;;;;;13.80;2.15;;;10.70;93.20;;;;;;4906549;29;20075;-91
2021/03/24 10:12:21;;;;;;;9.77;1.73;;;10.90;93.20;;;;;;4954797;29;20023;-91
2021/03/24 10:15:29;;;;;;;8.65;1.77;;;11.10;93.00;;;;;;4971651;28;20070;-92
2021/03/24 10:18:08;;;;;;;7.03;1.50;;;11.30;92.70;;;;;;4942138;29;20082;-94
2021/03/24 10:20:40;;;;;;;8.38;1.70;;;11.60;92.90;;;;;;4993394;28;20051;-93
2021/03/24 10:23:20;;;;;;;7.90;1.80;;;11.90;92.50;;;;;;4974460;28;20058;-93
2021/03/24 10:25:54;;;;;;;9.25;2.45;;;12.00;91.90;;;;;;4992688;28;20131;-93
2021/03/24 10:28:52;;;;;;;15.35;2.63;;;12.00;91.70;;;;;;4987887;28;20014;-92
2021/03/24 10:31:26;;;;;;;12.32;3.30;;;12.00;91.70;;;;;;4976667;28;20029;-93
2021/03/24 10:33:54;;;;;;;8.68;2.72;;;12.20;90.90;;;;;;4976701;28;20019;-92
2021/03/24 10:36:53;;;;;;;9.68;3.28;;;12.30;90.50;;;;;;4976260;28;20097;-92
2021/03/24 10:39:44;;;;;;;7.15;2.65;;;12.50;90.50;;;;;;4973393;28;20118;-93
2021/03/24 10:42:32;;;;;;;12.00;3.97;;;12.50;88.40;;;;;;4971846;28;20034;-93
2021/03/24 10:45:23;;;;;;;7.50;2.97;;;12.50;88.20;;;;;;4973750;28;20604;-91
2021/03/24 10:47:49;;;;;;;;;;;12.50;87.90;;;;;;4973604;28;20045;-93
2021/03/24 10:51:07;;;;;;;9.80;2.30;;;12.40;86.80;;;;;;4973376;28;20338;-94
2021/03/24 10:53:35;;;;;;;6.95;2.80;;;12.10;86.30;;;;;;4961671;28;20432;-94
2021/03/24 10:56:46;;;;;;;5.75;1.92;;;12.00;86.90;;;;;;4957329;28;20552;-93
2021/03/24 11:00:11;;;;;;;10.57;2.20;;;11.90;87.30;;;;;;4937252;29;20171;-95
2021/03/24 11:03:15;;;;;;;6.15;2.38;;;11.70;86.90;;;;;;4885917;29;20041;-93
2021/03/24 11:06:11;;;;;;;10.82;2.70;;;11.60;87.20;;;;;;4896671;29;20037;-95
2021/03/24 11:09:04;;;;;;;4.78;1.50;;;11.50;87.50;;;;;;4847050;29;20038;-94
2021/03/24 11:11:48;;;;;;;8.07;1.60;;;11.60;87.50;;;;;;4851531;29;20062;-95
2021/03/24 11:14:27;;;;;;;23.33;3.05;;;11.70;87.30;;;;;;4857509;29;20086;-95
2021/03/24 11:17:00;;;;;;;6.53;1.60;;;12.00;85.80;;;;;;4856904;29;20042;-94
2021/03/24 11:19:31;;;;;;;6.38;1.45;;;12.20;85.00;;;;;;4853952;29;20037;-94
2021/03/24 11:21:56;;;;;;;;;;;12.50;84.30;;;;;;4854629;29;20065;-95
2021/03/24 11:24:48;;;;;;;7.18;1.95;;;12.70;83.10;;;;;;4853458;29;19959;-94
2021/03/24 11:27:29;;;;;;;8.65;1.38;;;12.90;81.80;;;;;;4838792;29;20059;-93
2021/03/24 11:30:33;;;;;;;6.25;1.13;;;13.10;81.60;;;;;;4854816;29;20034;-92
2021/03/24 11:33:26;;;;;;;4.30;1.08;;;13.40;79.10;;;;;;4859451;29;20063;-93
2021/03/24 11:36:03;;;;;;;4.50;1.63;;;13.60;76.80;;;;;;4881793;29;20028;-93
2021/03/24 11:38:56;;;;;;;4.53;1.20;;;13.80;75.70;;;;;;4927392;29;20091;-93
2021/03/24 11:41:24;;;;;;;7.10;0.90;;;14.00;74.50;;;;;;4907837;29;20075;-94
2021/03/24 11:44:00;;;;;;;6.63;1.20;;;14.00;73.60;;;;;;4927410;29;20075;-94
2021/03/24 11:46:51;;;;;;;7.90;1.38;;;14.00;71.90;;;;;;4999276;28;20027;-94
2021/03/24 11:49:23;;;;;;;;;;;13.80;71.00;;;;;;4982918;28;20019;-92
2021/03/24 11:52:08;;;;;;;4.25;1.17;;;13.70;70.70;;;;;;4979850;28;19910;-93
2021/03/24 11:54:37;;;;;;;5.43;1.38;;;13.50;69.30;;;;;;4980662;28;20104;-93
2021/03/24 11:57:40;;;;;;;3.73;1.20;;;13.50;69.70;;;;;;4980674;28;20053;-95
2021/03/24 12:00:18;;;;;;;6.30;1.52;;;13.70;70.10;;;;;;4983088;28;20030;-94
2021/03/24 12:02:50;;;;;;;6.40;1.83;;;13.90;69.40;;;;;;4977646;28;20032;-93
2021/03/24 12:05:18;;;;;;;5.57;1.67;;;14.10;68.40;;;;;;4977035;28;20022;-93
2021/03/24 12:08:06;;;;;;;4.15;1.13;;;14.30;67.40;;;;;;4973616;28;20027;-92
2021/03/24 12:10:34;;;;;;;2.47;0.90;;;14.30;66.20;;;;;;4957651;28;20042;-92
2021/03/24 12:13:13;;;;;;;3.30;1.10;;;14.20;65.90;;;;;;4975107;28;20416;-94
2021/03/24 12:15:42;;;;;;;3.88;1.15;;;14.10;66.40;;;;;;4972759;28;20031;-93
2021/03/24 12:18:12;;;;;;;5.47;0.93;;;14.00;66.90;;;;;;4973323;28;20023;-94
2021/03/24 12:21:04;;;;;;;5.38;1.20;;;14.00;67.00;;;;;;4976158;28;20050;-92
2021/03/24 12:23:35;;;;;;;6.22;1.58;;;13.90;67.00;;;;;;4973555;28;20034;-93
2021/03/24 12:26:02;;;;;;;7.10;1.10;;;13.80;67.80;;;;;;4976605;28;20575;-94
2021/03/24 12:28:36;;;;;;;3.58;0.95;;;13.70;68.00;;;;;;4973566;28;20031;-93
2021/03/24 12:31:05;;;;;;;6.45;1.40;;;13.50;68.30;;;;;;4974685;28;20050;-93
2021/03/24 12:33:32;;;;;;;7.80;1.35;;;13.60;68.90;;;;;;4975801;28;20021;-93
2021/03/24 12:36:19;;;;;;;7.57;1.27;;;13.90;69.30;;;;;;4975725;28;20081;-94
2021/03/24 12:38:53;;;;;;;7.20;1.50;;;14.20;68.90;;;;;;4977124;28;20018;-93
2021/03/24 12:41:37;;;;;;;4.28;1.00;;;14.70;67.80;;;;;;4974580;28;20126;-94
2021/03/24 12:44:17;;;;;;;6.45;1.40;;;15.30;67.00;;;;;;4973629;28;20027;-94
2021/03/24 12:47:12;;;;;;;7.65;1.38;;;15.50;65.60;;;;;;4973692;28;20047;-93
2021/03/24 12:49:39;;;;;;;7.72;1.35;;;15.40;63.90;;;;;;4981172;28;20030;-92
2021/03/24 12:52:36;;;;;;;8.50;1.35;;;15.10;64.00;;;;;;4996783;28;20015;-93
2021/03/24 12:55:04;;;;;;;6.60;2.20;;;14.80;64.40;;;;;;4991922;28;20055;-94
2021/03/24 12:57:43;;;;;;;6.47;1.45;;;14.70;65.30;;;;;;4976407;28;20076;-94
2021/03/24 13:00:19;;;;;;;4.72;1.02;;;14.60;65.90;;;;;;4972988;28;20121;-92
2021/03/24 13:02:51;;;;;;;5.78;1.42;;;14.50;66.40;;;;;;4974343;28;20058;-93
2021/03/24 13:05:32;;;;;;;4.00;1.13;;;14.50;66.70;;;;;;4975883;28;20031;-92
2021/03/24 13:08:04;;;;;;;;;;;14.70;66.80;;;;;;4973987;28;20405;-94
2021/03/24 13:10:35;;;;;;;6.90;1.48;;;14.70;65.60;;;;;;4971622;28;19914;-93
2021/03/24 13:13:46;;;;;;;4.00;1.23;;;14.60;65.80;;;;;;4972947;28;20019;-93
2021/03/24 13:16:32;;;;;;;4.43;1.20;;;14.90;66.00;;;;;;4932105;29;20060;-94
2021/03/24 13:19:04;;;;;;;6.63;2.15;;;15.30;64.80;;;;;;4926764;29;20039;-93
2021/03/24 13:21:53;;;;;;;3.67;1.13;;;15.50;63.80;;;;;;4917914;29;20091;-92
2021/03/24 13:24:36;;;;;;;5.55;1.67;;;15.90;63.50;;;;;;4930414;29;20069;-94
2021/03/24 13:27:35;;;;;;;6.90;1.48;;;16.20;62.90;;;;;;4934341;29;20549;-92
2021/03/24 13:30:18;;;;;;;6.30;1.35;;;16.30;60.70;;;;;;4919329;29;20043;-93
2021/03/24 13:32:55;;;;;;;5.60;1.83;;;16.30;60.80;;;;;;4929944;29;20028;-90
2021/03/24 13:35:34;;;;;;;8.52;2.20;;;16.40;61.50;;;;;;4920969;29;20055;-93
2021/03/24 13:38:01;;;;;;;8.20;2.88;;;16.30;61.20;;;;;;4948749;29;20071;-89
2021/03/24 13:40:33;;;;;;;7.55;1.85;;;16.20;61.40;;;;;;4937259;29;20059;-90
2021/03/24 13:43:14;;;;;;;5.40;1.70;;;16.20;61.80;;;;;;4953481;29;20028;-90
2021/03/24 13:45:52;;;;;;;13.25;2.28;;;16.10;61.80;;;;;;4955630;29;20016;-90
2021/03/24 13:48:36;;;;;;;8.35;3.05;;;16.00;62.10;;;;;;4928752;29;20028;-92
2021/03/24 13:51:15;;;;;;;7.28;2.08;;;15.90;61.90;;;;;;4972201;28;20027;-93
2021/03/24 13:53:50;;;;;;;6.22;1.40;;;16.00;62.50;;;;;;4977229;28;20053;-92
2021/03/24 13:56:51;;;;;;;4.60;0.85;;;15.90;62.40;;;;;;4980909;28;20477;-92
2021/03/24 13:59:36;;;;;;;6.57;1.63;;;16.00;62.20;;;;;;4979947;28;20039;-94
2021/03/24 14:02:13;;;;;;;5.85;1.40;;;16.40;61.70;;;;;;4977987;28;20114;-92